F/V Anna Mamm Mari — FOHD — position and weather

sailwx.info

Track history (hours):
 
Tides and Currents Weather Stations Pressure Air Temp Water Temp Dewpoint Dewpoint Depression Visibility Wind Speed Wind Dir Waves Ship Positions

F/V Anna Mamm Mari

Last reported at 2014-Oct-21 01:31 UTC. Time now 2014-Oct-21 15:13 UTC.
Position N 46°25' W 001°51'.

Length 17 m.

Type: Fishing. MMSI: 228393000.

Date/timePositionNaut miles runAvg speedWind from/ knotsBaromVisibWave heightAir tempDewpointWater temp
2014-Oct-21 01:31N 46°25' W 001°51'5 5.4
2014-Oct-21 00:33N 46°30' W 001°47'0 0.2
2014-Oct-20 23:33N 46°30' W 001°47'7 7.3
2014-Oct-20 22:33N 46°24' W 001°53'69 3.1
2014-Oct-20 00:30N 45°17' W 001°28'0 0.0
2014-Oct-19 23:26N 45°17' W 001°28'23 1.0
2014-Oct-18 23:34N 45°34' W 001°06'  
2014-Oct-15 22:28N 46°13' W 001°42'7 7.3
2014-Oct-15 21:33N 46°20' W 001°44'7 7.2
2014-Oct-15 20:33N 46°27' W 001°47'3 3.2
2014-Oct-15 19:33N 46°30' W 001°47'0 0.0
2014-Oct-15 18:33N 46°30' W 001°47'0 0.0
2014-Oct-15 17:33N 46°30' W 001°47'0 0.2
2014-Oct-15 16:33N 46°30' W 001°47'0 0.0
2014-Oct-15 15:33N 46°30' W 001°47'0 0.0
2014-Oct-15 14:33N 46°30' W 001°47'0 0.0
2014-Oct-15 13:33N 46°30' W 001°47'1 0.8
2014-Oct-15 12:34N 46°29' W 001°47'9 8.4
2014-Oct-15 11:31N 46°22' W 001°54'10 1.7
2014-Oct-15 05:28N 46°11' W 001°56'0 0.2
2014-Oct-15 04:22N 46°11' W 001°56'2 1.9
2014-Oct-15 03:23N 46°13' W 001°57'0 0.0
2014-Oct-14 18:26N 46°13' W 001°57'3 2.3
2014-Oct-14 17:06N 46°10' W 001°56'6 6.9
2014-Oct-14 16:18N 46°15' W 002°00'7 9.0
2014-Oct-14 15:29N 46°09' W 001°55'  
Track history (hours):
 
Tides and Currents Weather Stations Pressure Air Temp Water Temp Dewpoint Dewpoint Depression Visibility Wind Speed Wind Dir Waves Ship Positions

F/V Anna Mamm Mari

Last reported at 2014-Oct-21 01:31 UTC. Time now 2014-Oct-21 15:13 UTC.
Position N 46°25' W 001°51'.

Length 17 m.

Type: Fishing. MMSI: 228393000.

Date/timePositionNaut miles runAvg speedWind from/ knotsBaromVisibWave heightAir tempDewpointWater temp
2014-Oct-21 01:31N 46°25' W 001°51'5 5.4
2014-Oct-21 00:33N 46°30' W 001°47'0 0.2
2014-Oct-20 23:33N 46°30' W 001°47'7 7.3
2014-Oct-20 22:33N 46°24' W 001°53'69 3.1
2014-Oct-20 00:30N 45°17' W 001°28'0 0.0
2014-Oct-19 23:26N 45°17' W 001°28'23 1.0
2014-Oct-18 23:34N 45°34' W 001°06'  
2014-Oct-15 22:28N 46°13' W 001°42'7 7.3
2014-Oct-15 21:33N 46°20' W 001°44'7 7.2
2014-Oct-15 20:33N 46°27' W 001°47'3 3.2
2014-Oct-15 19:33N 46°30' W 001°47'0 0.0
2014-Oct-15 18:33N 46°30' W 001°47'0 0.0
2014-Oct-15 17:33N 46°30' W 001°47'0 0.2
2014-Oct-15 16:33N 46°30' W 001°47'0 0.0
2014-Oct-15 15:33N 46°30' W 001°47'0 0.0
2014-Oct-15 14:33N 46°30' W 001°47'0 0.0
2014-Oct-15 13:33N 46°30' W 001°47'1 0.8
2014-Oct-15 12:34N 46°29' W 001°47'9 8.4
2014-Oct-15 11:31N 46°22' W 001°54'10 1.7
2014-Oct-15 05:28N 46°11' W 001°56'0 0.2
2014-Oct-15 04:22N 46°11' W 001°56'2 1.9
2014-Oct-15 03:23N 46°13' W 001°57'0 0.0
2014-Oct-14 18:26N 46°13' W 001°57'3 2.3
2014-Oct-14 17:06N 46°10' W 001°56'6 6.9
2014-Oct-14 16:18N 46°15' W 002°00'7 9.0
2014-Oct-14 15:29N 46°09' W 001°55'  

Dump ship's entire track history